sensor_id;sensor_type;location;lat;lon;timestamp;pressure;altitude;pressure_sealevel;temperature;humidity
74973;BME280;63529;56.320;43.990;2022-12-10T00:01:30;99984.22;;;-2.20;77.10
74973;BME280;63529;56.320;43.990;2022-12-10T00:03:57;99989.25;;;-2.18;77.24
74973;BME280;63529;56.320;43.990;2022-12-10T00:06:26;99987.44;;;-2.17;77.10
74973;BME280;63529;56.320;43.990;2022-12-10T00:08:52;99990.69;;;-2.15;77.05
74973;BME280;63529;56.320;43.990;2022-12-10T00:11:20;99985.66;;;-2.17;76.99
74973;BME280;63529;56.320;43.990;2022-12-10T00:13:48;99983.69;;;-2.15;77.02
74973;BME280;63529;56.320;43.990;2022-12-10T00:16:15;99989.06;;;-2.16;76.98
74973;BME280;63529;56.320;43.990;2022-12-10T00:18:42;99984.50;;;-2.14;77.04
74973;BME280;63529;56.320;43.990;2022-12-10T00:21:11;99991.53;;;-2.15;76.95
74973;BME280;63529;56.320;43.990;2022-12-10T00:23:38;99980.25;;;-2.15;77.07
74973;BME280;63529;56.320;43.990;2022-12-10T00:26:05;99973.06;;;-2.13;76.95
74973;BME280;63529;56.320;43.990;2022-12-10T00:28:31;99970.44;;;-2.13;76.92
74973;BME280;63529;56.320;43.990;2022-12-10T00:31:06;99975.00;;;-2.15;76.85
74973;BME280;63529;56.320;43.990;2022-12-10T00:33:33;99968.97;;;-2.16;77.08
74973;BME280;63529;56.320;43.990;2022-12-10T00:36:05;99967.81;;;-2.13;76.98
74973;BME280;63529;56.320;43.990;2022-12-10T00:38:31;99967.00;;;-2.14;76.97
74973;BME280;63529;56.320;43.990;2022-12-10T00:40:57;99969.44;;;-2.12;77.01
74973;BME280;63529;56.320;43.990;2022-12-10T00:43:23;99965.22;;;-2.13;77.03
74973;BME280;63529;56.320;43.990;2022-12-10T00:45:49;99973.06;;;-2.13;76.85
74973;BME280;63529;56.320;43.990;2022-12-10T00:48:15;99964.41;;;-2.14;77.13
74973;BME280;63529;56.320;43.990;2022-12-10T00:50:41;99974.66;;;-2.12;77.08
74973;BME280;63529;56.320;43.990;2022-12-10T00:53:07;99968.25;;;-2.10;76.84
74973;BME280;63529;56.320;43.990;2022-12-10T00:55:32;99965.66;;;-2.10;77.05
74973;BME280;63529;56.320;43.990;2022-12-10T00:57:58;99961.06;;;-2.08;77.06
74973;BME280;63529;56.320;43.990;2022-12-10T01:00:24;99956.66;;;-2.07;77.12
74973;BME280;63529;56.320;43.990;2022-12-10T01:02:50;99955.84;;;-2.08;76.99
74973;BME280;63529;56.320;43.990;2022-12-10T01:05:17;99949.63;;;-2.07;77.25
74973;BME280;63529;56.320;43.990;2022-12-10T01:07:43;99956.47;;;-2.06;77.26
74973;BME280;63529;56.320;43.990;2022-12-10T01:10:09;99958.28;;;-2.06;77.05
74973;BME280;63529;56.320;43.990;2022-12-10T01:12:35;99947.63;;;-2.05;77.16
74973;BME280;63529;56.320;43.990;2022-12-10T01:15:01;99949.25;;;-2.04;77.09
74973;BME280;63529;56.320;43.990;2022-12-10T01:17:29;99948.44;;;-2.04;77.05
74973;BME280;63529;56.320;43.990;2022-12-10T01:19:55;99945.66;;;-2.03;76.90
74973;BME280;63529;56.320;43.990;2022-12-10T01:22:21;99951.88;;;-2.04;76.94
74973;BME280;63529;56.320;43.990;2022-12-10T01:24:46;99949.72;;;-2.00;76.95
74973;BME280;63529;56.320;43.990;2022-12-10T01:27:12;99956.56;;;-1.99;76.93
74973;BME280;63529;56.320;43.990;2022-12-10T01:29:38;99932.22;;;-2.00;77.02
74973;BME280;63529;56.320;43.990;2022-12-10T01:32:07;99944.31;;;-1.99;76.92
74973;BME280;63529;56.320;43.990;2022-12-10T01:34:33;99940.69;;;-1.98;76.97
74973;BME280;63529;56.320;43.990;2022-12-10T01:36:58;99931.88;;;-1.97;77.00
74973;BME280;63529;56.320;43.990;2022-12-10T01:39:24;99945.75;;;-1.96;76.84
74973;BME280;63529;56.320;43.990;2022-12-10T01:41:56;99940.38;;;-1.95;76.88
74973;BME280;63529;56.320;43.990;2022-12-10T01:46:50;99949.22;;;-1.96;76.89
74973;BME280;63529;56.320;43.990;2022-12-10T01:49:19;99941.19;;;-1.94;77.02
74973;BME280;63529;56.320;43.990;2022-12-10T01:51:48;99942.78;;;-1.93;76.83
74973;BME280;63529;56.320;43.990;2022-12-10T01:54:20;99938.38;;;-1.93;76.86
74973;BME280;63529;56.320;43.990;2022-12-10T01:56:50;99931.72;;;-1.95;76.77
74973;BME280;63529;56.320;43.990;2022-12-10T01:59:20;99939.19;;;-1.92;76.70
74973;BME280;63529;56.320;43.990;2022-12-10T02:14:58;99931.81;;;-1.88;76.72
74973;BME280;63529;56.320;43.990;2022-12-10T02:17:43;99928.53;;;-1.91;76.63
74973;BME280;63529;56.320;43.990;2022-12-10T02:20:22;99929.19;;;-1.88;76.49
74973;BME280;63529;56.320;43.990;2022-12-10T02:23:12;99929.19;;;-1.88;76.58
74973;BME280;63529;56.320;43.990;2022-12-10T02:30:59;99940.63;;;-1.89;76.47
74973;BME280;63529;56.320;43.990;2022-12-10T02:33:27;99940.47;;;-1.88;76.41
74973;BME280;63529;56.320;43.990;2022-12-10T02:35:56;99936.03;;;-1.87;76.34
74973;BME280;63529;56.320;43.990;2022-12-10T02:38:30;99933.44;;;-1.87;76.16
74973;BME280;63529;56.320;43.990;2022-12-10T02:41:02;99947.50;;;-1.88;76.06
74973;BME280;63529;56.320;43.990;2022-12-10T02:43:32;99936.03;;;-1.87;75.88
74973;BME280;63529;56.320;43.990;2022-12-10T02:46:02;99936.03;;;-1.87;75.74
74973;BME280;63529;56.320;43.990;2022-12-10T02:48:31;99939.66;;;-1.88;75.47
74973;BME280;63529;56.320;43.990;2022-12-10T02:50:58;99934.41;;;-1.88;75.44
74973;BME280;63529;56.320;43.990;2022-12-10T02:53:24;99937.03;;;-1.88;75.63
74973;BME280;63529;56.320;43.990;2022-12-10T03:04:21;99936.84;;;-1.87;75.49
74973;BME280;63529;56.320;43.990;2022-12-10T03:06:53;99926.72;;;-1.90;75.44
74973;BME280;63529;56.320;43.990;2022-12-10T03:09:26;99930.81;;;-1.87;75.28
74973;BME280;63529;56.320;43.990;2022-12-10T03:11:59;99929.00;;;-1.87;75.01
74973;BME280;63529;56.320;43.990;2022-12-10T03:14:29;99931.81;;;-1.88;75.08
74973;BME280;63529;56.320;43.990;2022-12-10T03:16:58;99928.38;;;-1.89;75.19
74973;BME280;63529;56.320;43.990;2022-12-10T03:19:33;99931.00;;;-1.89;75.06
74973;BME280;63529;56.320;43.990;2022-12-10T03:22:03;99931.97;;;-1.90;75.08
74973;BME280;63529;56.320;43.990;2022-12-10T03:24:30;99923.50;;;-1.92;75.09
74973;BME280;63529;56.320;43.990;2022-12-10T03:26:58;99926.72;;;-1.90;74.92
74973;BME280;63529;56.320;43.990;2022-12-10T03:29:31;99913.03;;;-1.92;75.10
74973;BME280;63529;56.320;43.990;2022-12-10T03:31:58;99925.91;;;-1.91;74.87
74973;BME280;63529;56.320;43.990;2022-12-10T03:34:25;99914.66;;;-1.91;74.91
74973;BME280;63529;56.320;43.990;2022-12-10T03:36:51;99915.47;;;-1.91;74.55
74973;BME280;63529;56.320;43.990;2022-12-10T03:39:17;99922.50;;;-1.91;74.77
74973;BME280;63529;56.320;43.990;2022-12-10T03:41:43;99926.28;;;-1.94;74.58
74973;BME280;63529;56.320;43.990;2022-12-10T03:44:09;99932.31;;;-1.93;74.62
74973;BME280;63529;56.320;43.990;2022-12-10T03:46:35;99930.53;;;-1.93;74.60
74973;BME280;63529;56.320;43.990;2022-12-10T03:49:02;99928.28;;;-1.96;74.51
74973;BME280;63529;56.320;43.990;2022-12-10T03:51:28;99933.50;;;-1.96;74.51
74973;BME280;63529;56.320;43.990;2022-12-10T03:53:54;99951.97;;;-1.97;74.45
74973;BME280;63529;56.320;43.990;2022-12-10T03:56:20;99935.47;;;-1.98;74.26
74973;BME280;63529;56.320;43.990;2022-12-10T03:58:46;99953.59;;;-1.96;74.40
74973;BME280;63529;56.320;43.990;2022-12-10T04:01:13;99942.69;;;-2.00;74.23
74973;BME280;63529;56.320;43.990;2022-12-10T04:03:41;99945.13;;;-1.98;74.20
74973;BME280;63529;56.320;43.990;2022-12-10T04:06:13;99938.09;;;-1.98;74.42
74973;BME280;63529;56.320;43.990;2022-12-10T04:08:39;99936.47;;;-1.99;74.18
74973;BME280;63529;56.320;43.990;2022-12-10T04:11:09;99940.69;;;-1.98;74.23
74973;BME280;63529;56.320;43.990;2022-12-10T04:13:36;99947.75;;;-1.98;74.06
74973;BME280;63529;56.320;43.990;2022-12-10T04:16:22;99945.50;;;-2.01;74.15
74973;BME280;63529;56.320;43.990;2022-12-10T04:19:02;99947.13;;;-2.00;74.11
74973;BME280;63529;56.320;43.990;2022-12-10T04:21:30;99953.16;;;-2.00;74.01
74973;BME280;63529;56.320;43.990;2022-12-10T04:24:16;99947.13;;;-2.00;74.11
74973;BME280;63529;56.320;43.990;2022-12-10T04:27:33;99941.69;;;-1.99;74.13
74973;BME280;63529;56.320;43.990;2022-12-10T04:29:59;99956.41;;;-1.98;74.17
74973;BME280;63529;56.320;43.990;2022-12-10T04:32:27;99951.16;;;-1.98;74.09
74973;BME280;63529;56.320;43.990;2022-12-10T04:34:54;99952.16;;;-1.99;74.11
74973;BME280;63529;56.320;43.990;2022-12-10T04:37:21;99949.72;;;-2.00;74.06
74973;BME280;63529;56.320;43.990;2022-12-10T04:39:49;99955.78;;;-2.00;73.79
74973;BME280;63529;56.320;43.990;2022-12-10T04:42:16;99954.16;;;-2.01;73.75
74973;BME280;63529;56.320;43.990;2022-12-10T04:44:42;99951.69;;;-2.02;73.73
74973;BME280;63529;56.320;43.990;2022-12-10T04:47:09;99952.53;;;-2.02;73.74
74973;BME280;63529;56.320;43.990;2022-12-10T04:49:35;99947.44;;;-2.03;73.67
74973;BME280;63529;56.320;43.990;2022-12-10T04:52:01;99943.41;;;-2.06;73.64
74973;BME280;63529;56.320;43.990;2022-12-10T04:54:28;99954.66;;;-2.05;73.78
74973;BME280;63529;56.320;43.990;2022-12-10T04:56:54;99945.03;;;-2.05;73.58
74973;BME280;63529;56.320;43.990;2022-12-10T04:59:21;99942.41;;;-2.05;73.63
74973;BME280;63529;56.320;43.990;2022-12-10T05:01:47;99938.16;;;-2.06;73.48
74973;BME280;63529;56.320;43.990;2022-12-10T05:04:15;99939.16;;;-2.07;73.46
74973;BME280;63529;56.320;43.990;2022-12-10T05:06:42;99926.09;;;-2.07;73.47
74973;BME280;63529;56.320;43.990;2022-12-10T05:09:10;99941.78;;;-2.07;73.32
74973;BME280;63529;56.320;43.990;2022-12-10T05:11:36;99944.41;;;-2.07;73.50
74973;BME280;63529;56.320;43.990;2022-12-10T05:14:02;99941.13;;;-2.09;73.46
74973;BME280;63529;56.320;43.990;2022-12-10T05:16:30;99954.03;;;-2.07;73.24
74973;BME280;63529;56.320;43.990;2022-12-10T05:18:56;99944.56;;;-2.08;73.38
74973;BME280;63529;56.320;43.990;2022-12-10T05:21:23;99949.16;;;-2.10;73.38
74973;BME280;63529;56.320;43.990;2022-12-10T05:23:51;99954.19;;;-2.09;73.40
74973;BME280;63529;56.320;43.990;2022-12-10T05:26:22;99949.97;;;-2.10;73.64
74973;BME280;63529;56.320;43.990;2022-12-10T05:28:52;99959.44;;;-2.09;73.39
74973;BME280;63529;56.320;43.990;2022-12-10T05:33:46;99946.53;;;-2.10;73.41
74973;BME280;63529;56.320;43.990;2022-12-10T05:36:14;99952.25;;;-2.07;73.48
74973;BME280;63529;56.320;43.990;2022-12-10T05:38:41;99937.53;;;-2.08;73.29
74973;BME280;63529;56.320;43.990;2022-12-10T05:41:12;99928.03;;;-2.09;73.17
74973;BME280;63529;56.320;43.990;2022-12-10T05:43:40;99924.47;;;-2.08;73.37
74973;BME280;63529;56.320;43.990;2022-12-10T05:46:10;99916.63;;;-2.08;73.20
74973;BME280;63529;56.320;43.990;2022-12-10T05:48:36;99926.72;;;-2.05;73.23
74973;BME280;63529;56.320;43.990;2022-12-10T05:51:13;99935.19;;;-2.03;73.31
74973;BME280;63529;56.320;43.990;2022-12-10T05:53:40;99922.09;;;-2.03;73.35
74973;BME280;63529;56.320;43.990;2022-12-10T05:56:11;99919.50;;;-2.03;73.36
74973;BME280;63529;56.320;43.990;2022-12-10T05:58:39;99923.56;;;-2.00;73.40
74973;BME280;63529;56.320;43.990;2022-12-10T06:01:14;99942.50;;;-1.98;73.45
74973;BME280;63529;56.320;43.990;2022-12-10T06:03:40;99947.22;;;-1.94;73.44
74973;BME280;63529;56.320;43.990;2022-12-10T06:06:06;99947.84;;;-1.92;73.47
74973;BME280;63529;56.320;43.990;2022-12-10T06:08:33;99960.91;;;-1.92;73.38
74973;BME280;63529;56.320;43.990;2022-12-10T06:11:07;99969.56;;;-1.91;73.42
74973;BME280;63529;56.320;43.990;2022-12-10T06:13:33;99978.22;;;-1.91;73.13
74973;BME280;63529;56.320;43.990;2022-12-10T06:16:04;99963.34;;;-1.90;73.12
74973;BME280;63529;56.320;43.990;2022-12-10T06:18:31;99962.53;;;-1.91;73.30
74973;BME280;63529;56.320;43.990;2022-12-10T06:20:56;99952.72;;;-1.88;73.19
74973;BME280;63529;56.320;43.990;2022-12-10T06:23:22;99957.78;;;-1.87;73.21
74973;BME280;63529;56.320;43.990;2022-12-10T06:25:48;99947.94;;;-1.85;73.10
74973;BME280;63529;56.320;43.990;2022-12-10T06:28:14;99941.72;;;-1.84;73.13
74973;BME280;63529;56.320;43.990;2022-12-10T06:30:40;99939.75;;;-1.82;73.14
74973;BME280;63529;56.320;43.990;2022-12-10T06:33:06;99946.41;;;-1.79;73.04
74973;BME280;63529;56.320;43.990;2022-12-10T06:35:31;99954.09;;;-1.78;73.10
74973;BME280;63529;56.320;43.990;2022-12-10T06:37:57;99951.47;;;-1.78;73.11
74973;BME280;63529;56.320;43.990;2022-12-10T06:40:23;99955.53;;;-1.75;73.01
74973;BME280;63529;56.320;43.990;2022-12-10T06:42:51;99951.94;;;-1.74;73.07
74973;BME280;63529;56.320;43.990;2022-12-10T06:45:17;99948.94;;;-1.71;72.98
74973;BME280;63529;56.320;43.990;2022-12-10T06:47:43;99948.13;;;-1.72;72.93
74973;BME280;63529;56.320;43.990;2022-12-10T06:50:09;99948.59;;;-1.68;72.85
74973;BME280;63529;56.320;43.990;2022-12-10T06:52:35;99943.38;;;-1.68;72.70
74973;BME280;63529;56.320;43.990;2022-12-10T06:55:00;99953.84;;;-1.68;72.58
74973;BME280;63529;56.320;43.990;2022-12-10T06:57:28;99940.75;;;-1.68;72.71
74973;BME280;63529;56.320;43.990;2022-12-10T06:59:54;99948.59;;;-1.68;72.59
74973;BME280;63529;56.320;43.990;2022-12-10T07:02:20;99955.44;;;-1.67;72.63
74973;BME280;63529;56.320;43.990;2022-12-10T07:04:46;99958.25;;;-1.69;72.60
74973;BME280;63529;56.320;43.990;2022-12-10T07:07:11;99960.69;;;-1.67;72.42
74973;BME280;63529;56.320;43.990;2022-12-10T07:09:37;99972.59;;;-1.65;72.44
74973;BME280;63529;56.320;43.990;2022-12-10T07:12:04;99962.94;;;-1.64;72.63
74973;BME280;63529;56.320;43.990;2022-12-10T07:14:30;99969.81;;;-1.63;72.43
74973;BME280;63529;56.320;43.990;2022-12-10T07:16:55;99970.44;;;-1.61;72.60
74973;BME280;63529;56.320;43.990;2022-12-10T07:19:22;99960.41;;;-1.57;72.59
74973;BME280;63529;56.320;43.990;2022-12-10T07:21:48;99965.50;;;-1.56;72.32
74973;BME280;63529;56.320;43.990;2022-12-10T07:24:17;99957.25;;;-1.53;72.42
74973;BME280;63529;56.320;43.990;2022-12-10T07:26:44;99952.50;;;-1.49;72.43
74973;BME280;63529;56.320;43.990;2022-12-10T07:29:16;99945.44;;;-1.49;72.45
74973;BME280;63529;56.320;43.990;2022-12-10T07:31:43;99946.06;;;-1.47;72.37
74973;BME280;63529;56.320;43.990;2022-12-10T07:34:11;99945.88;;;-1.45;72.39
74973;BME280;63529;56.320;43.990;2022-12-10T07:36:38;99947.50;;;-1.44;72.28
74973;BME280;63529;56.320;43.990;2022-12-10T07:39:08;99955.34;;;-1.44;72.28
74973;BME280;63529;56.320;43.990;2022-12-10T07:41:35;99956.16;;;-1.44;72.20
74973;BME280;63529;56.320;43.990;2022-12-10T07:44:03;99948.97;;;-1.42;72.38
74973;BME280;63529;56.320;43.990;2022-12-10T07:46:32;99946.97;;;-1.40;72.36
74973;BME280;63529;56.320;43.990;2022-12-10T07:49:01;99945.97;;;-1.39;72.45
74973;BME280;63529;56.320;43.990;2022-12-10T07:51:27;99962.16;;;-1.35;72.50
74973;BME280;63529;56.320;43.990;2022-12-10T07:53:54;99958.53;;;-1.34;72.19
74973;BME280;63529;56.320;43.990;2022-12-10T07:56:20;99954.72;;;-1.31;72.28
74973;BME280;63529;56.320;43.990;2022-12-10T07:58:48;99956.19;;;-1.29;72.11
74973;BME280;63529;56.320;43.990;2022-12-10T08:01:17;99965.47;;;-1.26;72.26
74973;BME280;63529;56.320;43.990;2022-12-10T08:03:44;99956.47;;;-1.24;72.28
74973;BME280;63529;56.320;43.990;2022-12-10T08:06:12;99954.66;;;-1.23;71.99
74973;BME280;63529;56.320;43.990;2022-12-10T08:08:39;99946.41;;;-1.20;71.88
74973;BME280;63529;56.320;43.990;2022-12-10T08:11:06;99948.03;;;-1.19;72.07
74973;BME280;63529;56.320;43.990;2022-12-10T08:13:33;99936.56;;;-1.18;71.99
74973;BME280;63529;56.320;43.990;2022-12-10T08:18:33;99943.06;;;-1.14;72.02
74973;BME280;63529;56.320;43.990;2022-12-10T08:21:05;99945.69;;;-1.14;71.85
74973;BME280;63529;56.320;43.990;2022-12-10T08:23:31;99937.81;;;-1.14;71.86
74973;BME280;63529;56.320;43.990;2022-12-10T08:25:56;99942.25;;;-1.15;71.87
74973;BME280;63529;56.320;43.990;2022-12-10T08:28:22;99936.81;;;-1.13;71.91
74973;BME280;63529;56.320;43.990;2022-12-10T08:30:49;99935.47;;;-1.09;71.90
74973;BME280;63529;56.320;43.990;2022-12-10T08:33:15;99932.03;;;-1.10;71.89
74973;BME280;63529;56.320;43.990;2022-12-10T08:35:41;99931.25;;;-1.10;71.67
74973;BME280;63529;56.320;43.990;2022-12-10T08:38:07;99941.34;;;-1.07;71.78
74973;BME280;63529;56.320;43.990;2022-12-10T08:40:33;99943.94;;;-1.07;71.72
74973;BME280;63529;56.320;43.990;2022-12-10T08:43:00;99949.81;;;-1.05;71.83
74973;BME280;63529;56.320;43.990;2022-12-10T08:45:25;99941.16;;;-1.05;71.54
74973;BME280;63529;56.320;43.990;2022-12-10T08:47:52;99942.59;;;-1.03;71.70
74973;BME280;63529;56.320;43.990;2022-12-10T08:50:18;99942.03;;;-0.98;71.72
74973;BME280;63529;56.320;43.990;2022-12-10T08:52:44;99940.06;;;-0.96;71.57
74973;BME280;63529;56.320;43.990;2022-12-10T08:55:09;99938.88;;;-0.94;71.83
74973;BME280;63529;56.320;43.990;2022-12-10T08:57:35;99931.47;;;-0.90;71.69
74973;BME280;63529;56.320;43.990;2022-12-10T09:00:03;99920.59;;;-0.87;71.57
74973;BME280;63529;56.320;43.990;2022-12-10T09:02:30;99913.34;;;-0.85;71.45
74973;BME280;63529;56.320;43.990;2022-12-10T09:04:56;99912.00;;;-0.81;71.43
74973;BME280;63529;56.320;43.990;2022-12-10T09:07:22;99914.44;;;-0.79;71.35
74973;BME280;63529;56.320;43.990;2022-12-10T09:09:47;99914.44;;;-0.79;71.54
74973;BME280;63529;56.320;43.990;2022-12-10T09:12:13;99909.03;;;-0.78;71.55
74973;BME280;63529;56.320;43.990;2022-12-10T09:14:39;99918.50;;;-0.77;71.30
74973;BME280;63529;56.320;43.990;2022-12-10T09:17:07;99921.47;;;-0.80;71.53
74973;BME280;63529;56.320;43.990;2022-12-10T09:19:33;99916.44;;;-0.82;71.63
74973;BME280;63529;56.320;43.990;2022-12-10T09:21:59;99913.81;;;-0.82;71.65
74973;BME280;63529;56.320;43.990;2022-12-10T09:24:25;99925.09;;;-0.81;71.74
74973;BME280;63529;56.320;43.990;2022-12-10T09:26:51;99924.09;;;-0.80;71.83
74973;BME280;63529;56.320;43.990;2022-12-10T09:29:17;99931.97;;;-0.80;71.67
74973;BME280;63529;56.320;43.990;2022-12-10T09:31:43;99932.97;;;-0.81;71.94
74973;BME280;63529;56.320;43.990;2022-12-10T09:34:09;99942.63;;;-0.82;71.81
74973;BME280;63529;56.320;43.990;2022-12-10T09:36:35;99947.25;;;-0.84;71.85
74973;BME280;63529;56.320;43.990;2022-12-10T09:39:01;99946.59;;;-0.86;71.51
74973;BME280;63529;56.320;43.990;2022-12-10T09:41:43;99943.00;;;-0.85;71.88
74973;BME280;63529;56.320;43.990;2022-12-10T09:46:56;99927.66;;;-0.88;71.95
74973;BME280;63529;56.320;43.990;2022-12-10T09:51:50;99914.19;;;-0.85;71.96
74973;BME280;63529;56.320;43.990;2022-12-10T09:54:30;99913.00;;;-0.82;71.88
74973;BME280;63529;56.320;43.990;2022-12-10T09:56:57;99920.06;;;-0.83;72.07
74973;BME280;63529;56.320;43.990;2022-12-10T09:59:31;99921.28;;;-0.78;71.66
74973;BME280;63529;56.320;43.990;2022-12-10T10:04:48;99906.56;;;-0.79;71.98
74973;BME280;63529;56.320;43.990;2022-12-10T10:07:28;99903.13;;;-0.80;71.92
74973;BME280;63529;56.320;43.990;2022-12-10T10:09:59;99905.56;;;-0.78;71.96
74973;BME280;63529;56.320;43.990;2022-12-10T10:12:28;99912.63;;;-0.79;71.84
74973;BME280;63529;56.320;43.990;2022-12-10T10:14:56;99918.66;;;-0.78;72.07
74973;BME280;63529;56.320;43.990;2022-12-10T10:17:35;99922.28;;;-0.79;71.79
74973;BME280;63529;56.320;43.990;2022-12-10T10:20:02;99918.66;;;-0.78;72.02
74973;BME280;63529;56.320;43.990;2022-12-10T10:22:29;99907.38;;;-0.79;71.83
74973;BME280;63529;56.320;43.990;2022-12-10T10:24:55;99907.56;;;-0.80;71.90
74973;BME280;63529;56.320;43.990;2022-12-10T10:27:28;99903.94;;;-0.79;71.82
74973;BME280;63529;56.320;43.990;2022-12-10T10:29:56;99895.28;;;-0.80;72.01
74973;BME280;63529;56.320;43.990;2022-12-10T10:32:25;99909.19;;;-0.79;72.09
74973;BME280;63529;56.320;43.990;2022-12-10T10:34:56;99904.75;;;-0.79;72.14
74973;BME280;63529;56.320;43.990;2022-12-10T10:37:42;99903.94;;;-0.79;72.05
74973;BME280;63529;56.320;43.990;2022-12-10T10:40:42;99903.94;;;-0.79;72.08
74973;BME280;63529;56.320;43.990;2022-12-10T10:43:21;99903.94;;;-0.79;72.40
74973;BME280;63529;56.320;43.990;2022-12-10T10:45:59;99900.50;;;-0.80;72.11
74973;BME280;63529;56.320;43.990;2022-12-10T10:48:27;99911.00;;;-0.80;72.14
74973;BME280;63529;56.320;43.990;2022-12-10T10:53:54;99910.56;;;-0.84;72.09
74973;BME280;63529;56.320;43.990;2022-12-10T10:56:22;99909.94;;;-0.86;72.40
74973;BME280;63529;56.320;43.990;2022-12-10T10:59:07;99898.47;;;-0.85;72.37
74973;BME280;63529;56.320;43.990;2022-12-10T11:04:23;99894.22;;;-0.86;72.38
74973;BME280;63529;56.320;43.990;2022-12-10T11:06:55;99893.03;;;-0.83;72.57
74973;BME280;63529;56.320;43.990;2022-12-10T11:09:28;99893.84;;;-0.83;72.56
74973;BME280;63529;56.320;43.990;2022-12-10T11:12:00;99889.63;;;-0.84;72.48
74973;BME280;63529;56.320;43.990;2022-12-10T11:14:31;99889.22;;;-0.80;72.48
74973;BME280;63529;56.320;43.990;2022-12-10T11:17:18;99876.94;;;-0.80;72.48
74973;BME280;63529;56.320;43.990;2022-12-10T11:20:00;99891.84;;;-0.80;72.63
74973;BME280;63529;56.320;43.990;2022-12-10T11:22:33;99893.66;;;-0.81;72.49
74973;BME280;63529;56.320;43.990;2022-12-10T11:25:00;99889.78;;;-0.85;72.44
74973;BME280;63529;56.320;43.990;2022-12-10T11:30:25;99912.38;;;-0.84;72.75
74973;BME280;63529;56.320;43.990;2022-12-10T11:38:28;99911.94;;;-0.88;72.85
74973;BME280;63529;56.320;43.990;2022-12-10T11:44:12;99901.44;;;-0.88;72.91
74973;BME280;63529;56.320;43.990;2022-12-10T11:47:01;99908.50;;;-0.88;73.25
74973;BME280;63529;56.320;43.990;2022-12-10T11:54:10;99913.94;;;-0.90;73.13
74973;BME280;63529;56.320;43.990;2022-12-10T11:56:55;99915.09;;;-0.92;72.99
74973;BME280;63529;56.320;43.990;2022-12-10T11:59:46;99926.38;;;-0.92;73.39
74973;BME280;63529;56.320;43.990;2022-12-10T12:10:47;99924.69;;;-0.99;73.46
74973;BME280;63529;56.320;43.990;2022-12-10T12:13:33;99925.88;;;-1.02;73.60
74973;BME280;63529;56.320;43.990;2022-12-10T12:16:11;99917.84;;;-1.00;73.58
74973;BME280;63529;56.320;43.990;2022-12-10T12:21:09;99912.78;;;-1.02;73.79
74973;BME280;63529;56.320;43.990;2022-12-10T12:23:51;99914.59;;;-1.02;73.84
74973;BME280;63529;56.320;43.990;2022-12-10T12:26:23;99919.84;;;-1.02;73.79
74973;BME280;63529;56.320;43.990;2022-12-10T12:28:56;99910.53;;;-1.05;73.89
74973;BME280;63529;56.320;43.990;2022-12-10T12:32:01;99910.53;;;-1.05;73.80
74973;BME280;63529;56.320;43.990;2022-12-10T12:43:32;99931.47;;;-1.05;74.16
74973;BME280;63529;56.320;43.990;2022-12-10T12:46:02;99930.31;;;-1.02;74.13
74973;BME280;63529;56.320;43.990;2022-12-10T12:48:34;99932.94;;;-1.02;74.19
74973;BME280;63529;56.320;43.990;2022-12-10T12:51:09;99932.75;;;-1.01;74.27
74973;BME280;63529;56.320;43.990;2022-12-10T12:53:38;99927.31;;;-0.99;74.38
74973;BME280;63529;56.320;43.990;2022-12-10T12:56:38;99935.00;;;-0.98;74.27
74973;BME280;63529;56.320;43.990;2022-12-10T13:04:57;99907.00;;;-0.97;74.38
74973;BME280;63529;56.320;43.990;2022-12-10T13:07:27;99921.53;;;-0.95;74.41
74973;BME280;63529;56.320;43.990;2022-12-10T13:12:45;99923.16;;;-0.94;74.54
74973;BME280;63529;56.320;43.990;2022-12-10T13:18:34;99912.66;;;-0.94;74.86
74973;BME280;63529;56.320;43.990;2022-12-10T13:21:36;99918.53;;;-0.92;74.81
74973;BME280;63529;56.320;43.990;2022-12-10T13:24:45;99918.38;;;-0.90;74.76
74973;BME280;63529;56.320;43.990;2022-12-10T13:32:42;99906.88;;;-0.89;74.86
74973;BME280;63529;56.320;43.990;2022-12-10T13:37:36;99907.50;;;-0.87;74.88
74973;BME280;63529;56.320;43.990;2022-12-10T13:42:36;99904.06;;;-0.88;74.80
74973;BME280;63529;56.320;43.990;2022-12-10T13:47:51;99904.06;;;-0.88;74.90
74973;BME280;63529;56.320;43.990;2022-12-10T13:50:19;99898.22;;;-0.90;74.90
74973;BME280;63529;56.320;43.990;2022-12-10T13:55:34;99892.31;;;-0.92;75.00
74973;BME280;63529;56.320;43.990;2022-12-10T14:06:24;99896.94;;;-0.94;75.00
74973;BME280;63529;56.320;43.990;2022-12-10T14:11:40;99894.34;;;-0.94;75.24
74973;BME280;63529;56.320;43.990;2022-12-10T14:14:20;99888.28;;;-0.94;75.17
74973;BME280;63529;56.320;43.990;2022-12-10T14:16:48;99883.03;;;-0.94;75.26
74973;BME280;63529;56.320;43.990;2022-12-10T14:19:16;99887.28;;;-0.93;75.14
74973;BME280;63529;56.320;43.990;2022-12-10T14:21:45;99882.22;;;-0.95;75.19
74973;BME280;63529;56.320;43.990;2022-12-10T14:24:44;99884.03;;;-0.95;75.41
74973;BME280;63529;56.320;43.990;2022-12-10T14:27:24;99874.56;;;-0.96;75.27
74973;BME280;63529;56.320;43.990;2022-12-10T14:29:53;99866.72;;;-0.96;75.46
74973;BME280;63529;56.320;43.990;2022-12-10T14:32:29;99869.53;;;-0.98;75.40
74973;BME280;63529;56.320;43.990;2022-12-10T14:34:58;99863.44;;;-0.98;75.35
74973;BME280;63529;56.320;43.990;2022-12-10T14:37:27;99857.41;;;-0.99;75.55
74973;BME280;63529;56.320;43.990;2022-12-10T14:39:53;99849.53;;;-0.99;75.52
74973;BME280;63529;56.320;43.990;2022-12-10T14:42:20;99848.56;;;-0.98;75.39
74973;BME280;63529;56.320;43.990;2022-12-10T14:44:56;99855.59;;;-0.98;75.34
74973;BME280;63529;56.320;43.990;2022-12-10T14:47:22;99854.78;;;-0.99;75.43
74973;BME280;63529;56.320;43.990;2022-12-10T14:49:50;99853.81;;;-0.98;75.47
74973;BME280;63529;56.320;43.990;2022-12-10T14:52:22;99854.16;;;-1.01;75.71
74973;BME280;63529;56.320;43.990;2022-12-10T14:54:49;99858.59;;;-1.01;75.52
74973;BME280;63529;56.320;43.990;2022-12-10T14:57:19;99845.69;;;-1.03;75.57
74973;BME280;63529;56.320;43.990;2022-12-10T15:02:40;99852.91;;;-1.05;75.83
74973;BME280;63529;56.320;43.990;2022-12-10T15:05:13;99857.31;;;-1.05;75.82
74973;BME280;63529;56.320;43.990;2022-12-10T15:07:41;99851.47;;;-1.07;75.95
74973;BME280;63529;56.320;43.990;2022-12-10T15:10:14;99850.47;;;-1.06;75.85